createdAt,value
2022-09-18T00:02:24.502Z,10.20
2022-09-18T00:04:51.290Z,10.50
2022-09-18T00:07:18.141Z,10.40
2022-09-18T00:09:45.668Z,10.60
2022-09-18T00:12:12.399Z,10.60
2022-09-18T00:14:39.118Z,10.60
2022-09-18T00:17:08.960Z,10.70
2022-09-18T00:19:36.096Z,10.70
2022-09-18T00:22:02.800Z,10.70
2022-09-18T00:24:29.933Z,10.70
2022-09-18T00:26:56.651Z,10.70
2022-09-18T00:29:23.450Z,10.80
2022-09-18T00:31:50.234Z,10.70
2022-09-18T00:34:17.286Z,10.70
2022-09-18T00:36:44.471Z,10.70
2022-09-18T00:39:11.945Z,10.70
2022-09-18T00:41:42.969Z,10.80
2022-09-18T00:44:33.625Z,10.80
2022-09-18T00:47:26.426Z,10.70
2022-09-18T00:50:01.975Z,10.70
2022-09-18T00:52:36.219Z,10.60
2022-09-18T00:55:08.850Z,10.60
2022-09-18T00:57:41.275Z,10.60
2022-09-18T01:00:14.377Z,10.60
2022-09-18T01:02:42.377Z,10.60
2022-09-18T01:05:10.474Z,10.60
2022-09-18T01:07:49.875Z,10.50
2022-09-18T01:10:31.674Z,10.40
2022-09-18T01:13:27.431Z,10.30
2022-09-18T01:16:14.519Z,10.20
2022-09-18T01:18:58.283Z,10.20
2022-09-18T01:21:50.389Z,10.20
2022-09-18T01:25:03.300Z,10.30
2022-09-18T01:27:59.502Z,10.30
2022-09-18T01:30:26.375Z,10.30
2022-09-18T01:33:10.134Z,10.20
2022-09-18T01:35:43.061Z,10.20
2022-09-18T01:38:25.088Z,10.10
2022-09-18T01:41:21.684Z,10.10
2022-09-18T01:43:55.567Z,10.10
2022-09-18T01:46:24.179Z,10.20
2022-09-18T01:48:57.405Z,10.30
2022-09-18T01:51:29.663Z,10.30
2022-09-18T01:54:04.525Z,10.30
2022-09-18T01:56:38.355Z,10.30
2022-09-18T01:59:16.369Z,10.30
2022-09-18T02:01:46.344Z,10.30
2022-09-18T02:04:20.973Z,10.20
2022-09-18T02:07:14.309Z,10.30
2022-09-18T02:09:42.886Z,10.30
2022-09-18T02:12:14.373Z,10.30
2022-09-18T02:14:45.070Z,10.20
2022-09-18T02:17:21.698Z,10.20
2022-09-18T02:20:01.760Z,10.10
2022-09-18T02:22:32.361Z,9.80
2022-09-18T02:25:03.316Z,9.80
2022-09-18T02:27:32.132Z,9.60
2022-09-18T02:30:01.943Z,9.50
2022-09-18T02:32:28.950Z,9.40
2022-09-18T02:34:55.899Z,9.30
2022-09-18T02:37:37.844Z,9.10
2022-09-18T02:40:24.268Z,9.00
2022-09-18T02:43:09.641Z,9.00
2022-09-18T02:46:01.769Z,9.10
2022-09-18T02:48:43.868Z,9.20
2022-09-18T02:51:21.012Z,9.30
2022-09-18T02:54:06.171Z,9.40
2022-09-18T02:56:52.865Z,9.50
2022-09-18T02:59:28.623Z,9.50
2022-09-18T03:01:56.849Z,9.40
2022-09-18T03:04:26.178Z,9.40
2022-09-18T03:06:53.811Z,9.40
2022-09-18T03:09:20.885Z,9.50
2022-09-18T03:11:49.672Z,9.50
2022-09-18T03:14:16.863Z,9.50
2022-09-18T03:16:43.968Z,9.50
2022-09-18T03:19:11.896Z,9.50
2022-09-18T03:21:38.829Z,9.60
2022-09-18T03:24:05.722Z,9.40
2022-09-18T03:26:32.713Z,9.40
2022-09-18T03:28:59.831Z,9.40
2022-09-18T03:31:27.094Z,9.50
2022-09-18T03:33:54.262Z,9.40
2022-09-18T03:36:20.956Z,9.30
2022-09-18T03:38:47.661Z,9.30
2022-09-18T03:41:14.387Z,9.30
2022-09-18T03:43:41.895Z,9.30
2022-09-18T03:46:08.710Z,9.20
2022-09-18T03:48:35.595Z,9.10
2022-09-18T03:51:02.380Z,9.10
2022-09-18T03:53:29.115Z,9.10
2022-09-18T03:55:56.288Z,9.20
2022-09-18T03:58:23.383Z,9.20
2022-09-18T04:00:50.616Z,9.20
2022-09-18T04:03:17.837Z,9.20
2022-09-18T04:05:44.658Z,9.20
2022-09-18T04:08:12.212Z,9.20
2022-09-18T04:10:39.026Z,9.20
2022-09-18T04:13:05.714Z,9.20
2022-09-18T04:15:32.804Z,9.20
2022-09-18T04:17:59.510Z,9.00
2022-09-18T04:20:26.265Z,8.90
2022-09-18T04:22:52.987Z,8.60
2022-09-18T04:25:19.740Z,8.40
2022-09-18T04:27:46.839Z,8.10
2022-09-18T04:30:14.390Z,7.90
2022-09-18T04:32:43.574Z,7.70
2022-09-18T04:35:10.460Z,7.70
2022-09-18T04:37:37.374Z,7.70
2022-09-18T04:40:05.453Z,7.90
2022-09-18T04:42:32.572Z,7.90
2022-09-18T04:44:59.319Z,8.00
2022-09-18T04:47:26.026Z,8.20
2022-09-18T04:49:53.889Z,8.20
2022-09-18T04:52:20.615Z,8.30
2022-09-18T04:54:47.279Z,8.70
2022-09-18T04:57:14.481Z,8.50
2022-09-18T04:59:41.183Z,8.60
2022-09-18T05:02:10.844Z,8.80
2022-09-18T05:04:37.604Z,9.40
2022-09-18T05:07:05.173Z,8.80
2022-09-18T05:09:32.337Z,9.00
2022-09-18T05:11:59.578Z,9.10
2022-09-18T05:14:26.599Z,9.10
2022-09-18T05:16:53.799Z,9.20
2022-09-18T05:19:20.525Z,9.20
2022-09-18T05:21:51.147Z,9.40
2022-09-18T05:24:18.582Z,9.40
2022-09-18T05:26:45.701Z,9.40
2022-09-18T05:29:12.925Z,9.60
2022-09-18T05:31:41.879Z,9.70
2022-09-18T05:34:09.229Z,9.70
2022-09-18T05:36:36.096Z,9.80
2022-09-18T05:39:02.934Z,9.90
2022-09-18T05:41:30.079Z,10.00
2022-09-18T05:43:56.909Z,10.10
2022-09-18T05:46:23.787Z,10.10
2022-09-18T05:48:51.021Z,10.20
2022-09-18T05:51:17.964Z,10.20
2022-09-18T05:53:48.414Z,10.30
2022-09-18T05:56:16.571Z,10.30
2022-09-18T05:58:43.769Z,10.40
2022-09-18T06:01:10.643Z,10.50
2022-09-18T06:03:37.379Z,10.50
2022-09-18T06:06:04.366Z,10.60
2022-09-18T06:08:31.088Z,10.70
2022-09-18T06:11:01.084Z,10.80
2022-09-18T06:13:28.216Z,10.80
2022-09-18T06:15:56.076Z,10.80
2022-09-18T06:18:22.970Z,10.90
2022-09-18T06:20:55.712Z,11.00
2022-09-18T06:23:27.302Z,11.00
2022-09-18T06:26:02.072Z,11.00
2022-09-18T06:28:30.842Z,11.20
2022-09-18T06:30:58.964Z,11.20
2022-09-18T06:33:25.779Z,11.40
2022-09-18T06:35:53.012Z,11.40
2022-09-18T06:38:19.732Z,11.50
2022-09-18T06:40:54.462Z,11.50
2022-09-18T06:43:21.471Z,11.50
2022-09-18T06:45:53.177Z,11.70
2022-09-18T06:48:20.497Z,11.70
2022-09-18T06:50:54.693Z,11.80
2022-09-18T06:53:21.829Z,11.90
2022-09-18T06:55:49.277Z,12.10
2022-09-18T06:58:17.593Z,12.20
2022-09-18T07:00:45.505Z,12.30
2022-09-18T07:03:12.839Z,12.50
2022-09-18T07:05:42.690Z,12.60
2022-09-18T07:08:09.984Z,12.60
2022-09-18T07:10:37.068Z,12.70
2022-09-18T07:13:04.639Z,12.90
2022-09-18T07:15:31.845Z,13.00
2022-09-18T07:18:00.276Z,13.00
2022-09-18T07:20:27.676Z,13.10
2022-09-18T07:22:57.201Z,13.20
2022-09-18T07:25:24.691Z,13.30
2022-09-18T07:27:51.565Z,13.40
2022-09-18T07:30:19.117Z,13.40
2022-09-18T07:32:46.500Z,13.50
2022-09-18T07:35:13.776Z,13.50
2022-09-18T07:37:40.933Z,13.60
2022-09-18T07:40:09.606Z,13.90
2022-09-18T07:42:36.552Z,14.00
2022-09-18T07:45:04.214Z,14.20
2022-09-18T07:47:31.465Z,14.40
2022-09-18T07:49:58.612Z,14.50
2022-09-18T07:52:25.758Z,15.40
2022-09-18T07:54:52.895Z,15.40
2022-09-18T07:57:19.660Z,15.30
2022-09-18T07:59:46.798Z,15.60
2022-09-18T08:02:14.155Z,15.60
2022-09-18T08:04:41.019Z,15.40
2022-09-18T08:07:07.974Z,15.50
2022-09-18T08:09:34.666Z,15.70
2022-09-18T08:12:02.814Z,15.90
2022-09-18T08:14:30.063Z,15.90
2022-09-18T08:16:57.845Z,15.40
2022-09-18T08:19:25.032Z,15.30
2022-09-18T08:21:51.834Z,15.10
2022-09-18T08:24:18.972Z,15.00
2022-09-18T08:26:46.006Z,14.80
2022-09-18T08:29:19.241Z,14.80
2022-09-18T08:31:47.340Z,14.80
2022-09-18T08:34:14.228Z,15.10
2022-09-18T08:36:41.405Z,15.10
2022-09-18T08:39:08.864Z,15.40
2022-09-18T08:42:10.218Z,15.30
2022-09-18T08:44:50.314Z,15.30
2022-09-18T08:47:38.304Z,15.10
2022-09-18T08:50:27.218Z,15.20
2022-09-18T08:53:11.680Z,15.40
2022-09-18T08:55:42.823Z,15.70
2022-09-18T08:58:20.376Z,15.80
2022-09-18T09:00:59.192Z,15.70
2022-09-18T09:04:00.105Z,15.70
2022-09-18T09:06:26.948Z,15.70
2022-09-18T09:09:28.456Z,16.00
2022-09-18T09:12:22.292Z,16.30
2022-09-18T09:15:31.573Z,16.70
2022-09-18T09:17:58.269Z,16.60
2022-09-18T09:20:42.345Z,16.60
2022-09-18T09:23:18.350Z,16.80
2022-09-18T09:26:03.302Z,17.00
2022-09-18T09:28:45.964Z,17.60
2022-09-18T09:31:15.920Z,17.60
2022-09-18T09:33:58.837Z,17.40
2022-09-18T09:36:29.383Z,17.70
2022-09-18T09:39:15.229Z,18.00
2022-09-18T09:41:48.918Z,18.00
2022-09-18T09:44:37.245Z,18.20
2022-09-18T09:47:38.224Z,18.40
2022-09-18T09:50:53.620Z,18.60
2022-09-18T09:53:24.601Z,19.50
2022-09-18T09:56:18.008Z,19.90
2022-09-18T09:59:03.920Z,20.10
2022-09-18T10:01:39.995Z,20.10
2022-09-18T10:04:25.800Z,20.10
2022-09-18T10:07:02.935Z,20.00
2022-09-18T10:09:40.406Z,20.50
2022-09-18T10:12:22.630Z,21.00
2022-09-18T10:14:51.998Z,21.50
2022-09-18T10:17:21.490Z,21.90
2022-09-18T10:19:49.417Z,22.50
2022-09-18T10:22:20.369Z,23.10
2022-09-18T10:24:56.052Z,23.40
2022-09-18T10:27:23.387Z,24.10
2022-09-18T10:29:53.824Z,25.00
2022-09-18T10:32:44.052Z,26.00
2022-09-18T10:35:28.893Z,27.40
2022-09-18T10:37:56.661Z,28.60
2022-09-18T10:40:33.020Z,29.20
2022-09-18T10:43:00.744Z,29.60
2022-09-18T10:45:41.413Z,29.80
2022-09-18T10:48:23.933Z,30.00
2022-09-18T10:50:56.324Z,29.80
2022-09-18T10:53:29.401Z,30.00
2022-09-18T10:56:04.929Z,31.30
2022-09-18T10:58:33.677Z,31.10
2022-09-18T11:01:07.906Z,30.70
2022-09-18T11:03:40.407Z,31.20
2022-09-18T11:06:25.460Z,31.60
2022-09-18T11:08:56.184Z,32.10
2022-09-18T11:11:27.926Z,31.90
2022-09-18T11:14:08.006Z,31.90
2022-09-18T11:16:47.561Z,31.60
2022-09-18T11:19:30.747Z,32.00
2022-09-18T11:22:02.491Z,32.50
2022-09-18T11:24:32.086Z,32.90
2022-09-18T11:27:16.705Z,34.00
2022-09-18T11:29:43.513Z,34.00
2022-09-18T11:32:16.431Z,34.50
2022-09-18T11:35:13.259Z,35.00
2022-09-18T11:37:54.467Z,35.30
2022-09-18T11:40:32.074Z,35.60
2022-09-18T11:43:02.888Z,36.60
2022-09-18T11:45:34.916Z,37.00
2022-09-18T11:48:16.133Z,37.10
2022-09-18T11:50:42.991Z,36.10
2022-09-18T11:53:27.867Z,35.50
2022-09-18T11:56:24.732Z,34.40
2022-09-18T11:59:00.469Z,33.50
2022-09-18T12:01:47.874Z,34.30
2022-09-18T12:04:52.078Z,36.00
2022-09-18T12:07:44.252Z,37.40
2022-09-18T12:10:14.003Z,39.10
2022-09-18T12:12:51.119Z,40.70
2022-09-18T12:15:26.566Z,41.60
2022-09-18T12:17:56.112Z,41.00
2022-09-18T12:20:35.879Z,40.80
2022-09-18T12:23:03.382Z,41.30
2022-09-18T12:26:04.012Z,39.50
2022-09-18T12:29:22.228Z,37.30
2022-09-18T12:31:57.879Z,35.40
2022-09-18T12:34:43.687Z,35.40
2022-09-18T12:37:19.528Z,35.50
2022-09-18T12:39:52.945Z,36.20
2022-09-18T12:42:58.707Z,36.10
2022-09-18T12:45:53.244Z,36.30
2022-09-18T12:48:20.070Z,37.20
2022-09-18T12:50:49.911Z,37.50
2022-09-18T12:53:22.992Z,38.20
2022-09-18T12:56:09.968Z,38.50
2022-09-18T12:59:14.303Z,38.70
2022-09-18T13:01:52.466Z,38.80
2022-09-18T13:04:33.437Z,38.80
2022-09-18T13:07:16.962Z,38.80
2022-09-18T13:09:55.627Z,39.20
2022-09-18T13:12:41.839Z,39.80
2022-09-18T13:15:21.787Z,40.60
2022-09-18T13:17:53.931Z,39.90
2022-09-18T13:20:32.081Z,40.10
2022-09-18T13:23:00.802Z,40.40
2022-09-18T13:25:39.368Z,40.70
2022-09-18T13:28:14.307Z,41.70
2022-09-18T13:30:41.908Z,41.00
2022-09-18T13:33:26.707Z,40.30
2022-09-18T13:35:56.464Z,38.80
2022-09-18T13:38:26.964Z,38.30
2022-09-18T13:41:09.052Z,38.00
2022-09-18T13:43:46.896Z,38.30
2022-09-18T13:46:29.344Z,39.70
2022-09-18T13:48:58.243Z,40.70
2022-09-18T13:51:31.434Z,41.40
2022-09-18T13:54:22.538Z,42.00
2022-09-18T13:57:19.002Z,42.40
2022-09-18T14:00:09.400Z,42.70
2022-09-18T14:02:38.876Z,43.00
2022-09-18T14:05:27.448Z,43.30
2022-09-18T14:08:04.095Z,42.50
2022-09-18T14:10:54.896Z,42.60
2022-09-18T14:13:34.799Z,42.70
2022-09-18T14:16:11.186Z,41.30
2022-09-18T14:18:43.959Z,41.10
2022-09-18T14:21:19.438Z,42.20
2022-09-18T14:23:46.186Z,42.70
2022-09-18T14:26:31.241Z,42.60
2022-09-18T14:29:10.167Z,43.10
2022-09-18T14:31:54.247Z,43.10
2022-09-18T14:34:24.372Z,43.90
2022-09-18T14:37:00.922Z,44.40
2022-09-18T14:39:37.617Z,43.80
2022-09-18T14:42:12.495Z,43.50
2022-09-18T14:44:39.944Z,43.90
2022-09-18T14:47:19.065Z,43.80
2022-09-18T14:49:48.292Z,43.90
2022-09-18T14:52:30.397Z,43.90
2022-09-18T14:55:00.070Z,43.60
2022-09-18T14:57:36.866Z,43.90
2022-09-18T15:00:04.862Z,43.60
2022-09-18T15:02:34.011Z,43.50
2022-09-18T15:05:08.747Z,43.20
2022-09-18T15:07:38.129Z,42.40
2022-09-18T15:10:07.750Z,41.90
2022-09-18T15:12:36.031Z,42.40
2022-09-18T15:15:24.240Z,42.30
2022-09-18T15:17:51.358Z,42.10
2022-09-18T15:20:18.569Z,42.30
2022-09-18T15:22:45.360Z,41.50
2022-09-18T15:25:13.673Z,41.10
2022-09-18T15:27:42.687Z,40.80
2022-09-18T15:30:19.655Z,40.50
2022-09-18T15:33:04.063Z,40.70
2022-09-18T15:35:36.045Z,41.40
2022-09-18T15:38:07.052Z,41.40
2022-09-18T15:40:36.537Z,41.10
2022-09-18T15:43:06.311Z,40.10
2022-09-18T15:45:35.529Z,38.50
2022-09-18T15:48:34.077Z,36.50
2022-09-18T15:51:16.192Z,34.20
2022-09-18T15:54:02.016Z,31.90
2022-09-18T15:56:31.299Z,30.10
2022-09-18T15:58:59.866Z,28.90
2022-09-18T16:01:36.178Z,28.10
2022-09-18T16:04:15.147Z,27.10
2022-09-18T16:06:53.753Z,26.40
2022-09-18T16:09:33.537Z,25.80
2022-09-18T16:12:00.918Z,25.20
2022-09-18T16:14:43.598Z,24.70
2022-09-18T16:17:45.843Z,24.90
2022-09-18T16:20:32.777Z,26.40
2022-09-18T16:23:17.076Z,28.00
2022-09-18T16:25:44.623Z,29.30
2022-09-18T16:28:26.936Z,29.80
2022-09-18T16:30:54.497Z,30.10
2022-09-18T16:33:24.753Z,29.90
2022-09-18T16:36:00.654Z,29.50
2022-09-18T16:38:27.780Z,29.40
2022-09-18T16:40:56.093Z,29.10
2022-09-18T16:43:22.845Z,28.20
2022-09-18T16:45:50.440Z,27.10
2022-09-18T16:48:18.316Z,26.20
2022-09-18T16:50:45.666Z,25.40
2022-09-18T16:53:13.050Z,24.60
2022-09-18T16:55:45.036Z,24.10
2022-09-18T16:58:12.787Z,23.30
2022-09-18T17:00:39.812Z,22.70
2022-09-18T17:03:07.132Z,22.10
2022-09-18T17:05:34.733Z,21.80
2022-09-18T17:08:03.989Z,21.40
2022-09-18T17:10:34.101Z,20.70
2022-09-18T17:13:01.576Z,20.40
2022-09-18T17:15:29.097Z,20.20
2022-09-18T17:17:56.823Z,19.90
2022-09-18T17:20:23.680Z,19.60
2022-09-18T17:22:51.470Z,19.40
2022-09-18T17:25:19.086Z,19.40
2022-09-18T17:27:47.694Z,19.30
2022-09-18T17:30:14.883Z,19.10
2022-09-18T17:32:41.915Z,18.80
2022-09-18T17:35:09.108Z,18.60
2022-09-18T17:37:35.861Z,18.50
2022-09-18T17:40:04.035Z,18.30
2022-09-18T17:42:31.413Z,18.20
2022-09-18T17:44:58.126Z,18.10
2022-09-18T17:47:24.936Z,18.30
2022-09-18T17:49:52.190Z,18.20
2022-09-18T17:52:18.897Z,18.10
2022-09-18T17:54:46.175Z,17.90
2022-09-18T17:57:13.105Z,17.70
2022-09-18T17:59:44.901Z,17.50
2022-09-18T18:02:13.033Z,17.40
2022-09-18T18:04:39.872Z,17.30
2022-09-18T18:07:07.162Z,17.20
2022-09-18T18:09:37.405Z,17.30
2022-09-18T18:12:05.483Z,18.30
2022-09-18T18:14:34.443Z,18.20
2022-09-18T18:17:01.227Z,17.90
2022-09-18T18:19:28.314Z,17.60
2022-09-18T18:21:55.783Z,17.60
2022-09-18T18:24:22.872Z,17.90
2022-09-18T18:26:49.932Z,17.70
2022-09-18T18:29:18.883Z,17.50
2022-09-18T18:31:47.975Z,17.20
2022-09-18T18:34:17.579Z,17.00
2022-09-18T18:36:44.517Z,16.70
2022-09-18T18:39:12.999Z,16.50
2022-09-18T18:41:40.873Z,16.80
2022-09-18T18:44:08.265Z,16.60
2022-09-18T18:46:37.313Z,16.40
2022-09-18T18:49:09.065Z,16.20
2022-09-18T18:51:45.180Z,16.00
2022-09-18T18:54:14.159Z,16.00
2022-09-18T18:56:41.434Z,15.90
2022-09-18T18:59:11.661Z,15.80
2022-09-18T19:01:39.550Z,15.70
2022-09-18T19:04:09.287Z,15.60
2022-09-18T19:06:38.949Z,15.50
2022-09-18T19:09:19.460Z,15.40
2022-09-18T19:11:50.901Z,15.40
2022-09-18T19:14:24.181Z,15.40
2022-09-18T19:16:52.442Z,15.40
2022-09-18T19:19:21.634Z,15.30
2022-09-18T19:21:48.405Z,15.40
2022-09-18T19:24:18.515Z,15.30
2022-09-18T19:26:46.757Z,15.30
2022-09-18T19:29:16.360Z,15.40
2022-09-18T19:31:45.406Z,15.40
2022-09-18T19:34:14.657Z,15.40
2022-09-18T19:36:47.152Z,15.30
2022-09-18T19:39:14.816Z,15.30
2022-09-18T19:42:10.158Z,15.20
2022-09-18T19:44:47.516Z,15.20
2022-09-18T19:47:28.238Z,15.20
2022-09-18T19:49:59.697Z,15.00
2022-09-18T19:52:28.737Z,14.90
2022-09-18T19:54:56.879Z,14.80
2022-09-18T19:57:24.491Z,14.80
2022-09-18T19:59:57.026Z,14.70
2022-09-18T20:02:25.426Z,14.70
2022-09-18T20:04:52.727Z,14.60
2022-09-18T20:07:19.930Z,14.60
2022-09-18T20:09:46.685Z,14.60
2022-09-18T20:12:13.720Z,14.60
2022-09-18T20:14:40.554Z,14.60
2022-09-18T20:17:08.365Z,14.50
2022-09-18T20:19:36.071Z,14.50
2022-09-18T20:22:04.003Z,14.50
2022-09-18T20:24:31.786Z,14.50
2022-09-18T20:26:59.142Z,14.50
2022-09-18T20:29:27.510Z,14.40
2022-09-18T20:31:54.449Z,14.30
2022-09-18T20:34:23.171Z,14.10
2022-09-18T20:36:52.024Z,14.00
2022-09-18T20:39:19.321Z,14.00
2022-09-18T20:41:46.517Z,14.00
2022-09-18T20:44:13.494Z,14.00
2022-09-18T20:46:40.539Z,13.90
2022-09-18T20:49:07.847Z,13.90
2022-09-18T20:51:35.887Z,13.90
2022-09-18T20:54:04.853Z,14.00
2022-09-18T20:56:36.127Z,14.00
2022-09-18T20:59:05.124Z,14.10
2022-09-18T21:01:35.402Z,14.00
2022-09-18T21:04:03.167Z,14.00
2022-09-18T21:06:32.992Z,14.00
2022-09-18T21:09:04.336Z,14.00
2022-09-18T21:11:34.605Z,13.90
2022-09-18T21:14:03.245Z,14.00
2022-09-18T21:16:33.926Z,13.90
2022-09-18T21:19:02.036Z,13.70
2022-09-18T21:21:30.886Z,13.80
2022-09-18T21:24:04.278Z,13.80
2022-09-18T21:26:41.324Z,13.70
2022-09-18T21:29:23.554Z,13.60
2022-09-18T21:31:53.140Z,13.60
2022-09-18T21:34:27.123Z,13.60
2022-09-18T21:36:58.747Z,13.60
2022-09-18T21:39:28.331Z,13.60
2022-09-18T21:41:56.567Z,13.60
2022-09-18T21:44:27.239Z,15.60
2022-09-18T21:46:56.832Z,13.80
2022-09-18T21:49:23.730Z,13.70
2022-09-18T21:51:54.780Z,13.70
2022-09-18T21:54:23.159Z,13.70
2022-09-18T21:56:54.114Z,13.70
2022-09-18T21:59:31.588Z,13.70
2022-09-18T22:01:59.133Z,13.60
2022-09-18T22:04:29.012Z,13.50
2022-09-18T22:06:57.651Z,13.50
2022-09-18T22:09:27.743Z,13.40
2022-09-18T22:11:55.523Z,13.30
2022-09-18T22:14:29.826Z,13.40
2022-09-18T22:16:58.273Z,13.40
2022-09-18T22:19:25.346Z,13.40
2022-09-18T22:21:52.460Z,13.40
2022-09-18T22:24:25.331Z,13.30
2022-09-18T22:26:58.338Z,13.30
2022-09-18T22:29:28.241Z,13.30
2022-09-18T22:31:55.787Z,13.30
2022-09-18T22:34:24.608Z,13.30
2022-09-18T22:36:52.003Z,13.30
2022-09-18T22:39:20.596Z,13.20
2022-09-18T22:41:48.649Z,13.20
2022-09-18T22:44:15.946Z,13.10
2022-09-18T22:46:45.451Z,13.10
2022-09-18T22:49:13.935Z,13.10
2022-09-18T22:51:41.114Z,13.00
2022-09-18T22:54:08.440Z,13.10
2022-09-18T22:56:44.889Z,13.00
2022-09-18T22:59:13.993Z,12.90
2022-09-18T23:01:51.105Z,12.90
2022-09-18T23:04:20.710Z,12.80
2022-09-18T23:06:48.958Z,12.90
2022-09-18T23:09:17.761Z,12.70
2022-09-18T23:11:46.598Z,12.70
2022-09-18T23:14:17.119Z,12.70
2022-09-18T23:16:44.228Z,12.70
2022-09-18T23:19:18.718Z,12.70
2022-09-18T23:21:45.925Z,12.60
2022-09-18T23:24:13.028Z,12.70
2022-09-18T23:26:42.873Z,12.60
2022-09-18T23:29:13.009Z,12.60
2022-09-18T23:31:42.712Z,12.60
2022-09-18T23:34:21.062Z,12.50
2022-09-18T23:36:50.187Z,12.50
2022-09-18T23:39:22.292Z,12.40
2022-09-18T23:41:50.059Z,12.40
2022-09-18T23:44:18.656Z,12.30
2022-09-18T23:46:47.883Z,12.30
2022-09-18T23:49:16.281Z,12.30
2022-09-18T23:51:48.066Z,12.30
2022-09-18T23:54:23.962Z,12.20
2022-09-18T23:56:51.703Z,12.20
2022-09-18T23:59:22.795Z,12.20
